Huvudsida
METAR-TAF:

METAR-TAF

Flygplatser :

Wakkanai, Japan

latitud: 45-24N, longitud: 141-48E, höjd: 8 m

Aktuellt väderrapport

Denna rapport gjordes för 1 timme och 16 minuter sedan, klockan 07:00 UTC
Vind 10 kt från väst/nordväst
Temperatur 11°C
Fuktighet 87%
Tryck 1004 hPa
Sikt 10 km eller mer
Få moln på en höjd av 500 ft
Spridda moln på en höjd av 1300 ft
Brutna moln på en höjd av 1500 ft

METAR: RJCW 250700Z 30010KT 9999 FEW005 SCT013 BKN015 11/09 Q1004

Tid: 17:16 (08:16 UTC)


TAF: saknas

Aktuella väderrapporter och prognoser från 4000 flygplatser (METAR- och TAF-rapporter).

De tillgängliga stationerna syns som gula och röda prickar på kartan.

För musen över prickarna för att se namnen på stationerna.

Klicka sedan för att få väderrapporter och prognoser.

För att ändra kartan: Klicka på de gröna knapparna med ett svart kors på för att zooma in; den gröna knappen med ett streck på för att zooma ut; eller på de gröna pilarna för angränsande kartor.


METAR-TAF: